sensor_id;sensor_type;location;lat;lon;timestamp;temperature;humidity
41256;DHT22;26989;45.524;10.938;2023-12-20T07:11:09;5.70;99.90
41256;DHT22;26989;45.524;10.938;2023-12-20T07:13:37;5.80;99.90
41256;DHT22;26989;45.524;10.938;2023-12-20T07:16:04;5.90;99.90
41256;DHT22;26989;45.524;10.938;2023-12-20T07:18:31;5.90;99.90
41256;DHT22;26989;45.524;10.938;2023-12-20T07:20:58;6.00;99.90
41256;DHT22;26989;45.524;10.938;2023-12-20T07:23:25;6.00;99.90
41256;DHT22;26989;45.524;10.938;2023-12-20T07:25:53;6.10;99.90
41256;DHT22;26989;45.524;10.938;2023-12-20T07:28:24;6.10;99.90
41256;DHT22;26989;45.524;10.938;2023-12-20T07:30:55;6.10;99.90
41256;DHT22;26989;45.524;10.938;2023-12-20T07:33:31;6.20;99.90
41256;DHT22;26989;45.524;10.938;2023-12-20T07:36:05;6.30;99.90
41256;DHT22;26989;45.524;10.938;2023-12-20T07:38:33;6.10;99.90
41256;DHT22;26989;45.524;10.938;2023-12-20T07:41:04;6.10;99.90
41256;DHT22;26989;45.524;10.938;2023-12-20T07:43:35;6.20;99.90
41256;DHT22;26989;45.524;10.938;2023-12-20T07:46:11;6.30;99.90
41256;DHT22;26989;45.524;10.938;2023-12-20T07:48:40;6.50;99.90
41256;DHT22;26989;45.524;10.938;2023-12-20T07:51:11;6.60;99.90
41256;DHT22;26989;45.524;10.938;2023-12-20T07:53:38;6.50;99.90
41256;DHT22;26989;45.524;10.938;2023-12-20T07:56:19;6.40;99.90
41256;DHT22;26989;45.524;10.938;2023-12-20T07:58:46;6.40;99.90
41256;DHT22;26989;45.524;10.938;2023-12-20T08:01:19;6.50;99.90
41256;DHT22;26989;45.524;10.938;2023-12-20T08:03:49;6.50;99.90
41256;DHT22;26989;45.524;10.938;2023-12-20T08:06:16;6.50;99.90
41256;DHT22;26989;45.524;10.938;2023-12-20T08:08:44;6.60;99.90
41256;DHT22;26989;45.524;10.938;2023-12-20T08:11:11;6.80;99.90
41256;DHT22;26989;45.524;10.938;2023-12-20T08:13:38;6.80;99.90
41256;DHT22;26989;45.524;10.938;2023-12-20T08:16:05;6.90;99.90
41256;DHT22;26989;45.524;10.938;2023-12-20T08:18:32;7.00;99.90
41256;DHT22;26989;45.524;10.938;2023-12-20T08:21:00;7.00;99.90
41256;DHT22;26989;45.524;10.938;2023-12-20T08:23:28;7.00;99.90
41256;DHT22;26989;45.524;10.938;2023-12-20T08:25:58;6.90;99.90
41256;DHT22;26989;45.524;10.938;2023-12-20T08:28:25;6.80;99.90
41256;DHT22;26989;45.524;10.938;2023-12-20T08:30:52;6.90;99.90
41256;DHT22;26989;45.524;10.938;2023-12-20T08:33:20;7.00;99.90
41256;DHT22;26989;45.524;10.938;2023-12-20T08:35:47;7.10;99.90
41256;DHT22;26989;45.524;10.938;2023-12-20T08:38:15;7.20;99.90
41256;DHT22;26989;45.524;10.938;2023-12-20T08:40:44;7.30;99.90
41256;DHT22;26989;45.524;10.938;2023-12-20T08:43:11;7.40;99.90
41256;DHT22;26989;45.524;10.938;2023-12-20T08:45:38;7.50;99.90
41256;DHT22;26989;45.524;10.938;2023-12-20T08:48:06;7.50;99.90
41256;DHT22;26989;45.524;10.938;2023-12-20T08:50:35;7.50;99.90
41256;DHT22;26989;45.524;10.938;2023-12-20T08:53:03;7.40;99.90
41256;DHT22;26989;45.524;10.938;2023-12-20T08:55:30;7.40;99.90
41256;DHT22;26989;45.524;10.938;2023-12-20T08:57:58;7.50;99.90
41256;DHT22;26989;45.524;10.938;2023-12-20T09:00:25;7.50;99.90
41256;DHT22;26989;45.524;10.938;2023-12-20T09:02:57;7.60;99.90
41256;DHT22;26989;45.524;10.938;2023-12-20T09:05:24;7.60;99.90
41256;DHT22;26989;45.524;10.938;2023-12-20T09:07:51;7.60;99.90
41256;DHT22;26989;45.524;10.938;2023-12-20T09:10:18;7.60;99.90
41256;DHT22;26989;45.524;10.938;2023-12-20T09:12:52;7.60;99.90
41256;DHT22;26989;45.524;10.938;2023-12-20T09:15:24;7.60;99.90
41256;DHT22;26989;45.524;10.938;2023-12-20T09:17:51;7.50;99.90
41256;DHT22;26989;45.524;10.938;2023-12-20T09:20:19;7.50;99.90
41256;DHT22;26989;45.524;10.938;2023-12-20T09:22:46;7.60;99.90
41256;DHT22;26989;45.524;10.938;2023-12-20T09:25:13;7.60;99.90
41256;DHT22;26989;45.524;10.938;2023-12-20T09:27:42;7.60;99.90
41256;DHT22;26989;45.524;10.938;2023-12-20T09:30:09;7.60;99.90
41256;DHT22;26989;45.524;10.938;2023-12-20T09:32:36;7.70;99.90
41256;DHT22;26989;45.524;10.938;2023-12-20T09:35:04;7.70;99.90
41256;DHT22;26989;45.524;10.938;2023-12-20T09:37:33;7.80;99.90
41256;DHT22;26989;45.524;10.938;2023-12-20T09:39:59;7.80;99.90
41256;DHT22;26989;45.524;10.938;2023-12-20T09:42:44;7.80;99.90
41256;DHT22;26989;45.524;10.938;2023-12-20T09:45:14;7.80;99.90
41256;DHT22;26989;45.524;10.938;2023-12-20T09:47:43;7.80;99.90
41256;DHT22;26989;45.524;10.938;2023-12-20T09:50:11;7.80;99.90
41256;DHT22;26989;45.524;10.938;2023-12-20T09:52:39;7.70;99.90
41256;DHT22;26989;45.524;10.938;2023-12-20T09:55:07;7.80;99.90
41256;DHT22;26989;45.524;10.938;2023-12-20T09:57:34;7.80;99.90
41256;DHT22;26989;45.524;10.938;2023-12-20T10:00:01;7.80;99.90
41256;DHT22;26989;45.524;10.938;2023-12-20T10:02:29;7.50;99.90
41256;DHT22;26989;45.524;10.938;2023-12-20T10:04:59;7.40;99.90
41256;DHT22;26989;45.524;10.938;2023-12-20T10:07:27;7.30;99.90
41256;DHT22;26989;45.524;10.938;2023-12-20T10:09:54;7.40;99.90
41256;DHT22;26989;45.524;10.938;2023-12-20T10:12:23;7.50;99.90
41256;DHT22;26989;45.524;10.938;2023-12-20T10:14:50;7.60;99.90
41256;DHT22;26989;45.524;10.938;2023-12-20T10:17:17;7.70;99.90
41256;DHT22;26989;45.524;10.938;2023-12-20T10:19:45;7.70;99.90
41256;DHT22;26989;45.524;10.938;2023-12-20T10:22:12;7.70;99.90
41256;DHT22;26989;45.524;10.938;2023-12-20T10:24:40;7.80;99.90
41256;DHT22;26989;45.524;10.938;2023-12-20T10:27:08;7.70;99.90
41256;DHT22;26989;45.524;10.938;2023-12-20T10:29:36;7.70;99.90
41256;DHT22;26989;45.524;10.938;2023-12-20T10:32:26;7.70;99.90
41256;DHT22;26989;45.524;10.938;2023-12-20T10:34:55;7.60;99.90
41256;DHT22;26989;45.524;10.938;2023-12-20T10:37:22;7.50;99.90
41256;DHT22;26989;45.524;10.938;2023-12-20T10:39:51;7.50;99.90
41256;DHT22;26989;45.524;10.938;2023-12-20T10:42:21;7.50;99.90
41256;DHT22;26989;45.524;10.938;2023-12-20T10:44:49;7.50;99.90
41256;DHT22;26989;45.524;10.938;2023-12-20T10:47:17;7.50;99.90
41256;DHT22;26989;45.524;10.938;2023-12-20T10:49:45;7.50;99.90
41256;DHT22;26989;45.524;10.938;2023-12-20T10:52:13;7.60;99.90
41256;DHT22;26989;45.524;10.938;2023-12-20T10:54:40;7.60;99.90
41256;DHT22;26989;45.524;10.938;2023-12-20T10:57:08;7.50;99.90
41256;DHT22;26989;45.524;10.938;2023-12-20T10:59:37;7.50;99.90
41256;DHT22;26989;45.524;10.938;2023-12-20T11:02:07;7.40;99.90
41256;DHT22;26989;45.524;10.938;2023-12-20T11:04:55;7.30;99.90
41256;DHT22;26989;45.524;10.938;2023-12-20T11:07:32;7.30;99.90
41256;DHT22;26989;45.524;10.938;2023-12-20T11:10:29;7.40;99.90
41256;DHT22;26989;45.524;10.938;2023-12-20T11:15:30;7.50;99.90
41256;DHT22;26989;45.524;10.938;2023-12-20T11:17:58;7.40;99.90
41256;DHT22;26989;45.524;10.938;2023-12-20T11:20:39;7.30;99.90
41256;DHT22;26989;45.524;10.938;2023-12-20T11:23:08;7.50;99.90
41256;DHT22;26989;45.524;10.938;2023-12-20T11:25:55;7.40;99.90
41256;DHT22;26989;45.524;10.938;2023-12-20T11:28:24;7.50;99.90
41256;DHT22;26989;45.524;10.938;2023-12-20T11:30:56;7.80;99.90
41256;DHT22;26989;45.524;10.938;2023-12-20T11:33:26;7.90;99.90
41256;DHT22;26989;45.524;10.938;2023-12-20T11:35:56;7.90;99.90
41256;DHT22;26989;45.524;10.938;2023-12-20T11:38:24;7.50;99.90
41256;DHT22;26989;45.524;10.938;2023-12-20T11:40:53;7.30;99.90
41256;DHT22;26989;45.524;10.938;2023-12-20T11:43:36;7.30;99.90
41256;DHT22;26989;45.524;10.938;2023-12-20T11:46:08;7.40;99.90
41256;DHT22;26989;45.524;10.938;2023-12-20T11:48:40;7.50;99.90
41256;DHT22;26989;45.524;10.938;2023-12-20T11:51:11;7.60;99.90
41256;DHT22;26989;45.524;10.938;2023-12-20T11:53:39;7.80;99.90
41256;DHT22;26989;45.524;10.938;2023-12-20T11:56:06;7.80;99.90
41256;DHT22;26989;45.524;10.938;2023-12-20T11:58:34;7.80;99.90
41256;DHT22;26989;45.524;10.938;2023-12-20T12:01:01;7.80;99.90
41256;DHT22;26989;45.524;10.938;2023-12-20T12:03:31;7.90;99.90
41256;DHT22;26989;45.524;10.938;2023-12-20T12:05:59;8.10;99.90
41256;DHT22;26989;45.524;10.938;2023-12-20T12:08:27;8.10;99.90
41256;DHT22;26989;45.524;10.938;2023-12-20T12:11:26;8.10;99.90
41256;DHT22;26989;45.524;10.938;2023-12-20T12:13:53;8.10;99.90
41256;DHT22;26989;45.524;10.938;2023-12-20T12:16:21;8.20;99.90
41256;DHT22;26989;45.524;10.938;2023-12-20T12:18:56;8.20;99.90
41256;DHT22;26989;45.524;10.938;2023-12-20T12:21:24;8.30;99.90
41256;DHT22;26989;45.524;10.938;2023-12-20T12:24:09;8.40;99.90
41256;DHT22;26989;45.524;10.938;2023-12-20T12:26:36;8.40;99.90
41256;DHT22;26989;45.524;10.938;2023-12-20T12:29:07;8.50;99.90
41256;DHT22;26989;45.524;10.938;2023-12-20T12:31:34;8.60;99.90
41256;DHT22;26989;45.524;10.938;2023-12-20T12:34:01;8.70;99.90
41256;DHT22;26989;45.524;10.938;2023-12-20T12:36:29;8.80;99.90
41256;DHT22;26989;45.524;10.938;2023-12-20T12:39:02;8.90;99.90
41256;DHT22;26989;45.524;10.938;2023-12-20T12:41:31;9.00;99.90
41256;DHT22;26989;45.524;10.938;2023-12-20T12:43:58;9.10;99.90
41256;DHT22;26989;45.524;10.938;2023-12-20T12:46:37;9.00;99.90
41256;DHT22;26989;45.524;10.938;2023-12-20T12:49:04;9.00;99.90
41256;DHT22;26989;45.524;10.938;2023-12-20T12:51:31;9.10;99.90
41256;DHT22;26989;45.524;10.938;2023-12-20T12:53:58;9.20;99.90
41256;DHT22;26989;45.524;10.938;2023-12-20T12:56:25;9.20;99.90
41256;DHT22;26989;45.524;10.938;2023-12-20T12:58:52;9.30;99.90
41256;DHT22;26989;45.524;10.938;2023-12-20T13:01:19;9.40;99.90
41256;DHT22;26989;45.524;10.938;2023-12-20T13:03:46;9.40;99.90
41256;DHT22;26989;45.524;10.938;2023-12-20T13:06:13;9.50;99.90
41256;DHT22;26989;45.524;10.938;2023-12-20T13:08:40;9.50;99.90
41256;DHT22;26989;45.524;10.938;2023-12-20T13:11:08;9.60;99.90
41256;DHT22;26989;45.524;10.938;2023-12-20T13:13:35;9.80;99.90
41256;DHT22;26989;45.524;10.938;2023-12-20T13:16:03;9.90;99.90
41256;DHT22;26989;45.524;10.938;2023-12-20T13:18:30;9.90;99.90
41256;DHT22;26989;45.524;10.938;2023-12-20T13:20:57;9.90;99.90
41256;DHT22;26989;45.524;10.938;2023-12-20T13:23:24;10.10;99.90
41256;DHT22;26989;45.524;10.938;2023-12-20T13:25:51;10.10;99.90
41256;DHT22;26989;45.524;10.938;2023-12-20T13:28:18;10.10;99.90
41256;DHT22;26989;45.524;10.938;2023-12-20T13:30:45;10.10;99.90
41256;DHT22;26989;45.524;10.938;2023-12-20T13:33:12;10.10;99.90
41256;DHT22;26989;45.524;10.938;2023-12-20T13:35:39;10.00;99.90
41256;DHT22;26989;45.524;10.938;2023-12-20T13:38:06;9.80;99.90
41256;DHT22;26989;45.524;10.938;2023-12-20T13:40:34;9.60;99.90
41256;DHT22;26989;45.524;10.938;2023-12-20T13:43:01;9.50;99.90
41256;DHT22;26989;45.524;10.938;2023-12-20T13:45:30;9.30;99.90
41256;DHT22;26989;45.524;10.938;2023-12-20T13:47:57;9.10;99.90
41256;DHT22;26989;45.524;10.938;2023-12-20T13:50:25;8.90;99.90
41256;DHT22;26989;45.524;10.938;2023-12-20T13:52:53;8.70;99.90
41256;DHT22;26989;45.524;10.938;2023-12-20T13:55:20;8.50;99.90
41256;DHT22;26989;45.524;10.938;2023-12-20T13:57:52;8.40;99.90
41256;DHT22;26989;45.524;10.938;2023-12-20T14:00:22;8.20;99.90
41256;DHT22;26989;45.524;10.938;2023-12-20T14:02:49;8.10;99.90
41256;DHT22;26989;45.524;10.938;2023-12-20T14:05:16;8.00;99.90
41256;DHT22;26989;45.524;10.938;2023-12-20T14:07:49;7.90;99.90
41256;DHT22;26989;45.524;10.938;2023-12-20T14:10:17;8.00;99.90
41256;DHT22;26989;45.524;10.938;2023-12-20T14:12:44;7.90;99.90
41256;DHT22;26989;45.524;10.938;2023-12-20T14:15:11;7.80;99.90
41256;DHT22;26989;45.524;10.938;2023-12-20T14:17:40;7.80;99.90
41256;DHT22;26989;45.524;10.938;2023-12-20T14:20:09;7.90;99.90
41256;DHT22;26989;45.524;10.938;2023-12-20T14:22:36;8.10;99.90
41256;DHT22;26989;45.524;10.938;2023-12-20T14:25:05;8.20;99.90
41256;DHT22;26989;45.524;10.938;2023-12-20T14:27:33;8.30;99.90
41256;DHT22;26989;45.524;10.938;2023-12-20T14:30:02;8.30;99.90
41256;DHT22;26989;45.524;10.938;2023-12-20T14:32:30;8.30;99.90
41256;DHT22;26989;45.524;10.938;2023-12-20T14:34:57;8.30;99.90
41256;DHT22;26989;45.524;10.938;2023-12-20T14:37:24;8.30;99.90
41256;DHT22;26989;45.524;10.938;2023-12-20T14:39:52;8.20;99.90
41256;DHT22;26989;45.524;10.938;2023-12-20T14:42:19;8.20;99.90
41256;DHT22;26989;45.524;10.938;2023-12-20T14:44:46;8.10;99.90
41256;DHT22;26989;45.524;10.938;2023-12-20T14:47:12;8.10;99.90
41256;DHT22;26989;45.524;10.938;2023-12-20T14:49:42;8.00;99.90
41256;DHT22;26989;45.524;10.938;2023-12-20T14:52:09;7.90;99.90
41256;DHT22;26989;45.524;10.938;2023-12-20T14:54:38;7.80;99.90
41256;DHT22;26989;45.524;10.938;2023-12-20T14:57:05;7.70;99.90
41256;DHT22;26989;45.524;10.938;2023-12-20T14:59:32;7.80;99.90
41256;DHT22;26989;45.524;10.938;2023-12-20T15:02:00;7.80;99.90
41256;DHT22;26989;45.524;10.938;2023-12-20T15:04:27;7.50;99.90
41256;DHT22;26989;45.524;10.938;2023-12-20T15:06:55;7.30;99.90
41256;DHT22;26989;45.524;10.938;2023-12-20T15:09:22;7.10;99.90
41256;DHT22;26989;45.524;10.938;2023-12-20T15:11:49;7.10;99.90
41256;DHT22;26989;45.524;10.938;2023-12-20T15:14:16;7.20;99.90
41256;DHT22;26989;45.524;10.938;2023-12-20T15:16:47;7.00;99.90
41256;DHT22;26989;45.524;10.938;2023-12-20T15:19:14;6.70;99.90
41256;DHT22;26989;45.524;10.938;2023-12-20T15:21:42;6.50;99.90
41256;DHT22;26989;45.524;10.938;2023-12-20T15:24:13;6.30;99.90
41256;DHT22;26989;45.524;10.938;2023-12-20T15:26:46;6.20;99.90
41256;DHT22;26989;45.524;10.938;2023-12-20T15:29:13;6.20;99.90
41256;DHT22;26989;45.524;10.938;2023-12-20T15:31:47;6.10;99.90
41256;DHT22;26989;45.524;10.938;2023-12-20T15:34:15;6.00;99.90
41256;DHT22;26989;45.524;10.938;2023-12-20T15:36:43;5.90;99.90
41256;DHT22;26989;45.524;10.938;2023-12-20T15:39:10;5.90;99.90
41256;DHT22;26989;45.524;10.938;2023-12-20T15:41:41;5.90;99.90
41256;DHT22;26989;45.524;10.938;2023-12-20T15:44:17;6.00;99.90
41256;DHT22;26989;45.524;10.938;2023-12-20T15:46:44;6.00;99.90
41256;DHT22;26989;45.524;10.938;2023-12-20T15:49:11;6.00;99.90
41256;DHT22;26989;45.524;10.938;2023-12-20T15:51:38;6.00;99.90
41256;DHT22;26989;45.524;10.938;2023-12-20T15:54:05;5.80;99.90
41256;DHT22;26989;45.524;10.938;2023-12-20T15:56:35;5.40;99.90
41256;DHT22;26989;45.524;10.938;2023-12-20T15:59:03;5.50;99.90
41256;DHT22;26989;45.524;10.938;2023-12-20T16:01:30;5.60;99.90
41256;DHT22;26989;45.524;10.938;2023-12-20T16:03:58;5.60;99.90
41256;DHT22;26989;45.524;10.938;2023-12-20T16:06:26;5.40;99.90
41256;DHT22;26989;45.524;10.938;2023-12-20T16:08:54;5.60;99.90
41256;DHT22;26989;45.524;10.938;2023-12-20T16:11:23;5.40;99.90
41256;DHT22;26989;45.524;10.938;2023-12-20T16:13:50;5.20;99.90
41256;DHT22;26989;45.524;10.938;2023-12-20T16:16:17;5.00;99.90
41256;DHT22;26989;45.524;10.938;2023-12-20T16:18:44;5.00;99.90
41256;DHT22;26989;45.524;10.938;2023-12-20T16:21:11;5.10;99.90
41256;DHT22;26989;45.524;10.938;2023-12-20T16:23:38;4.90;99.90
41256;DHT22;26989;45.524;10.938;2023-12-20T16:26:05;4.90;99.90
41256;DHT22;26989;45.524;10.938;2023-12-20T16:28:32;5.00;99.90
41256;DHT22;26989;45.524;10.938;2023-12-20T16:31:00;4.90;99.90
41256;DHT22;26989;45.524;10.938;2023-12-20T16:33:26;4.80;99.90
41256;DHT22;26989;45.524;10.938;2023-12-20T16:35:55;4.80;99.90
41256;DHT22;26989;45.524;10.938;2023-12-20T16:38:23;5.10;99.90
41256;DHT22;26989;45.524;10.938;2023-12-20T16:40:50;5.10;99.90
41256;DHT22;26989;45.524;10.938;2023-12-20T16:43:17;5.10;99.90
41256;DHT22;26989;45.524;10.938;2023-12-20T16:45:44;5.00;99.90
41256;DHT22;26989;45.524;10.938;2023-12-20T16:48:11;4.80;99.90
41256;DHT22;26989;45.524;10.938;2023-12-20T16:50:39;4.90;99.90
41256;DHT22;26989;45.524;10.938;2023-12-20T16:53:06;4.90;99.90
41256;DHT22;26989;45.524;10.938;2023-12-20T16:55:33;4.70;99.90
41256;DHT22;26989;45.524;10.938;2023-12-20T16:58:00;4.60;99.90
41256;DHT22;26989;45.524;10.938;2023-12-20T17:00:32;4.60;99.90
41256;DHT22;26989;45.524;10.938;2023-12-20T17:02:59;4.50;99.90
41256;DHT22;26989;45.524;10.938;2023-12-20T17:05:26;4.60;99.90
41256;DHT22;26989;45.524;10.938;2023-12-20T17:07:54;4.50;99.90
41256;DHT22;26989;45.524;10.938;2023-12-20T17:10:21;4.60;99.90
41256;DHT22;26989;45.524;10.938;2023-12-20T17:12:48;4.70;99.90
41256;DHT22;26989;45.524;10.938;2023-12-20T17:15:15;4.70;99.90
41256;DHT22;26989;45.524;10.938;2023-12-20T17:17:42;4.70;99.90
41256;DHT22;26989;45.524;10.938;2023-12-20T17:20:12;4.70;99.90
41256;DHT22;26989;45.524;10.938;2023-12-20T17:22:39;4.70;99.90
41256;DHT22;26989;45.524;10.938;2023-12-20T17:25:07;4.70;99.90
41256;DHT22;26989;45.524;10.938;2023-12-20T17:27:35;4.70;99.90
41256;DHT22;26989;45.524;10.938;2023-12-20T17:30:02;4.60;99.90
41256;DHT22;26989;45.524;10.938;2023-12-20T17:32:29;4.70;99.90
41256;DHT22;26989;45.524;10.938;2023-12-20T17:34:56;4.70;99.90
41256;DHT22;26989;45.524;10.938;2023-12-20T17:37:23;4.60;99.90
41256;DHT22;26989;45.524;10.938;2023-12-20T17:39:50;4.60;99.90
41256;DHT22;26989;45.524;10.938;2023-12-20T17:42:17;4.60;99.90
41256;DHT22;26989;45.524;10.938;2023-12-20T17:44:44;4.50;99.90
41256;DHT22;26989;45.524;10.938;2023-12-20T17:47:11;4.40;99.90
41256;DHT22;26989;45.524;10.938;2023-12-20T17:49:38;4.40;99.90
41256;DHT22;26989;45.524;10.938;2023-12-20T17:52:05;4.50;99.90
41256;DHT22;26989;45.524;10.938;2023-12-20T17:54:33;4.40;99.90
41256;DHT22;26989;45.524;10.938;2023-12-20T17:56:59;4.50;99.90
41256;DHT22;26989;45.524;10.938;2023-12-20T17:59:29;4.50;99.90
41256;DHT22;26989;45.524;10.938;2023-12-20T18:02:04;4.50;99.90
41256;DHT22;26989;45.524;10.938;2023-12-20T18:04:32;4.60;99.90
41256;DHT22;26989;45.524;10.938;2023-12-20T18:06:59;4.60;99.90
41256;DHT22;26989;45.524;10.938;2023-12-20T18:09:26;4.60;99.90
41256;DHT22;26989;45.524;10.938;2023-12-20T18:11:53;4.50;99.90
41256;DHT22;26989;45.524;10.938;2023-12-20T18:14:20;4.40;99.90
41256;DHT22;26989;45.524;10.938;2023-12-20T18:16:47;4.50;99.90
41256;DHT22;26989;45.524;10.938;2023-12-20T18:19:14;4.60;99.90
41256;DHT22;26989;45.524;10.938;2023-12-20T18:21:41;4.60;99.90
41256;DHT22;26989;45.524;10.938;2023-12-20T18:24:09;4.50;99.90
41256;DHT22;26989;45.524;10.938;2023-12-20T18:26:39;4.70;99.90
41256;DHT22;26989;45.524;10.938;2023-12-20T18:29:06;4.60;99.90
41256;DHT22;26989;45.524;10.938;2023-12-20T18:31:34;4.70;99.90
41256;DHT22;26989;45.524;10.938;2023-12-20T18:34:02;4.60;99.90
41256;DHT22;26989;45.524;10.938;2023-12-20T18:36:32;4.50;99.90
41256;DHT22;26989;45.524;10.938;2023-12-20T18:38:59;4.50;99.90
41256;DHT22;26989;45.524;10.938;2023-12-20T18:41:26;4.60;99.90
41256;DHT22;26989;45.524;10.938;2023-12-20T18:43:54;4.60;99.90
41256;DHT22;26989;45.524;10.938;2023-12-20T18:46:22;4.40;99.90
41256;DHT22;26989;45.524;10.938;2023-12-20T18:48:51;4.50;99.90
41256;DHT22;26989;45.524;10.938;2023-12-20T18:51:20;4.50;99.90
41256;DHT22;26989;45.524;10.938;2023-12-20T18:53:47;4.50;99.90
41256;DHT22;26989;45.524;10.938;2023-12-20T18:56:14;4.50;99.90
41256;DHT22;26989;45.524;10.938;2023-12-20T18:58:42;4.40;99.90
41256;DHT22;26989;45.524;10.938;2023-12-20T19:01:12;4.30;99.90
41256;DHT22;26989;45.524;10.938;2023-12-20T19:03:40;4.40;99.90
41256;DHT22;26989;45.524;10.938;2023-12-20T19:06:07;4.60;99.90
41256;DHT22;26989;45.524;10.938;2023-12-20T19:08:35;4.50;99.90
41256;DHT22;26989;45.524;10.938;2023-12-20T19:11:03;4.50;99.90
41256;DHT22;26989;45.524;10.938;2023-12-20T19:13:30;4.60;99.90
41256;DHT22;26989;45.524;10.938;2023-12-20T19:15:59;4.40;99.90
41256;DHT22;26989;45.524;10.938;2023-12-20T19:18:26;4.50;99.90
41256;DHT22;26989;45.524;10.938;2023-12-20T19:20:54;4.60;99.90
41256;DHT22;26989;45.524;10.938;2023-12-20T19:23:21;4.60;99.90
41256;DHT22;26989;45.524;10.938;2023-12-20T19:25:48;4.60;99.90
41256;DHT22;26989;45.524;10.938;2023-12-20T19:28:15;4.60;99.90
41256;DHT22;26989;45.524;10.938;2023-12-20T19:30:42;4.50;99.90
41256;DHT22;26989;45.524;10.938;2023-12-20T19:33:09;4.50;99.90
41256;DHT22;26989;45.524;10.938;2023-12-20T19:35:36;4.40;99.90
41256;DHT22;26989;45.524;10.938;2023-12-20T19:38:04;4.50;99.90
41256;DHT22;26989;45.524;10.938;2023-12-20T19:40:31;4.50;99.90
41256;DHT22;26989;45.524;10.938;2023-12-20T19:42:58;4.50;99.90
41256;DHT22;26989;45.524;10.938;2023-12-20T19:45:25;4.50;99.90
41256;DHT22;26989;45.524;10.938;2023-12-20T19:47:52;4.60;99.90
41256;DHT22;26989;45.524;10.938;2023-12-20T19:50:19;4.50;99.90
41256;DHT22;26989;45.524;10.938;2023-12-20T19:52:47;4.40;99.90
41256;DHT22;26989;45.524;10.938;2023-12-20T19:55:14;4.30;99.90
41256;DHT22;26989;45.524;10.938;2023-12-20T19:57:41;4.50;99.90
41256;DHT22;26989;45.524;10.938;2023-12-20T20:00:08;4.50;99.90
41256;DHT22;26989;45.524;10.938;2023-12-20T20:02:35;4.60;99.90
41256;DHT22;26989;45.524;10.938;2023-12-20T20:05:05;4.70;99.90
41256;DHT22;26989;45.524;10.938;2023-12-20T20:07:33;4.50;99.90
41256;DHT22;26989;45.524;10.938;2023-12-20T20:10:00;4.50;99.90
41256;DHT22;26989;45.524;10.938;2023-12-20T20:12:27;4.50;99.90
41256;DHT22;26989;45.524;10.938;2023-12-20T20:14:55;4.40;99.90
41256;DHT22;26989;45.524;10.938;2023-12-20T20:17:22;4.40;99.90
41256;DHT22;26989;45.524;10.938;2023-12-20T20:19:49;4.40;99.90
41256;DHT22;26989;45.524;10.938;2023-12-20T20:22:16;4.40;99.90
41256;DHT22;26989;45.524;10.938;2023-12-20T20:24:44;4.30;99.90
41256;DHT22;26989;45.524;10.938;2023-12-20T20:27:12;4.10;99.90
41256;DHT22;26989;45.524;10.938;2023-12-20T20:29:39;4.20;99.90
41256;DHT22;26989;45.524;10.938;2023-12-20T20:32:06;4.30;99.90
41256;DHT22;26989;45.524;10.938;2023-12-20T20:34:33;4.30;99.90
41256;DHT22;26989;45.524;10.938;2023-12-20T20:37:00;4.20;99.90
41256;DHT22;26989;45.524;10.938;2023-12-20T20:39:27;3.90;99.90
41256;DHT22;26989;45.524;10.938;2023-12-20T20:41:54;4.10;99.90
41256;DHT22;26989;45.524;10.938;2023-12-20T20:44:21;4.30;99.90
41256;DHT22;26989;45.524;10.938;2023-12-20T20:46:48;4.30;99.90
41256;DHT22;26989;45.524;10.938;2023-12-20T20:49:15;4.30;99.90
41256;DHT22;26989;45.524;10.938;2023-12-20T20:51:43;4.30;99.90
41256;DHT22;26989;45.524;10.938;2023-12-20T20:54:10;4.40;99.90
41256;DHT22;26989;45.524;10.938;2023-12-20T20:56:45;4.20;99.90
41256;DHT22;26989;45.524;10.938;2023-12-20T20:59:11;4.30;99.90
41256;DHT22;26989;45.524;10.938;2023-12-20T21:01:38;4.20;99.90
41256;DHT22;26989;45.524;10.938;2023-12-20T21:04:06;4.20;99.90
41256;DHT22;26989;45.524;10.938;2023-12-20T21:06:33;4.30;99.90
41256;DHT22;26989;45.524;10.938;2023-12-20T21:09:00;4.20;99.90
41256;DHT22;26989;45.524;10.938;2023-12-20T21:11:27;4.10;99.90
41256;DHT22;26989;45.524;10.938;2023-12-20T21:13:54;4.10;99.90
41256;DHT22;26989;45.524;10.938;2023-12-20T21:16:21;4.10;99.90
41256;DHT22;26989;45.524;10.938;2023-12-20T21:18:48;4.30;99.90
41256;DHT22;26989;45.524;10.938;2023-12-20T21:21:15;4.20;99.90
41256;DHT22;26989;45.524;10.938;2023-12-20T21:23:42;4.00;99.90
41256;DHT22;26989;45.524;10.938;2023-12-20T21:26:09;4.10;99.90
41256;DHT22;26989;45.524;10.938;2023-12-20T21:28:38;4.20;99.90
41256;DHT22;26989;45.524;10.938;2023-12-20T21:31:05;4.20;99.90
41256;DHT22;26989;45.524;10.938;2023-12-20T21:33:32;4.20;99.90
41256;DHT22;26989;45.524;10.938;2023-12-20T21:36:00;4.20;99.90
41256;DHT22;26989;45.524;10.938;2023-12-20T21:38:28;4.20;99.90
41256;DHT22;26989;45.524;10.938;2023-12-20T21:40:55;4.30;99.90
41256;DHT22;26989;45.524;10.938;2023-12-20T21:43:22;4.30;99.90
41256;DHT22;26989;45.524;10.938;2023-12-20T21:45:49;4.20;99.90
41256;DHT22;26989;45.524;10.938;2023-12-20T21:48:17;4.30;99.90
41256;DHT22;26989;45.524;10.938;2023-12-20T21:50:44;4.20;99.90
41256;DHT22;26989;45.524;10.938;2023-12-20T21:53:11;4.30;99.90
41256;DHT22;26989;45.524;10.938;2023-12-20T21:55:41;4.30;99.90
41256;DHT22;26989;45.524;10.938;2023-12-20T21:58:09;4.20;99.90
41256;DHT22;26989;45.524;10.938;2023-12-20T22:00:36;4.30;99.90
41256;DHT22;26989;45.524;10.938;2023-12-20T22:03:03;4.40;99.90
41256;DHT22;26989;45.524;10.938;2023-12-20T22:05:36;4.30;99.90
41256;DHT22;26989;45.524;10.938;2023-12-20T22:08:04;4.20;99.90
41256;DHT22;26989;45.524;10.938;2023-12-20T22:10:31;4.10;99.90
41256;DHT22;26989;45.524;10.938;2023-12-20T22:12:58;4.10;99.90
41256;DHT22;26989;45.524;10.938;2023-12-20T22:15:26;4.20;99.90
41256;DHT22;26989;45.524;10.938;2023-12-20T22:17:53;4.20;99.90
41256;DHT22;26989;45.524;10.938;2023-12-20T22:20:20;4.30;99.90
41256;DHT22;26989;45.524;10.938;2023-12-20T22:22:47;4.40;99.90
41256;DHT22;26989;45.524;10.938;2023-12-20T22:25:14;4.40;99.90
41256;DHT22;26989;45.524;10.938;2023-12-20T22:27:41;4.40;99.90
41256;DHT22;26989;45.524;10.938;2023-12-20T22:30:09;4.50;99.90
41256;DHT22;26989;45.524;10.938;2023-12-20T22:32:36;4.50;99.90
41256;DHT22;26989;45.524;10.938;2023-12-20T22:35:06;4.50;99.90
41256;DHT22;26989;45.524;10.938;2023-12-20T22:37:33;4.40;99.90
41256;DHT22;26989;45.524;10.938;2023-12-20T22:40:00;4.50;99.90
41256;DHT22;26989;45.524;10.938;2023-12-20T22:42:28;4.50;99.90
41256;DHT22;26989;45.524;10.938;2023-12-20T22:44:54;4.40;99.90
41256;DHT22;26989;45.524;10.938;2023-12-20T22:47:22;4.40;99.90
41256;DHT22;26989;45.524;10.938;2023-12-20T22:49:50;4.50;99.90